Orbital elements of FENGYUN 1C DEB
| Launched | 9 May 1999 |
| Flight ended | – |
| Launch site | Taiyuan Space Center, PRC |
| Owner | People's Republic of China |
| NORAD ID | 31997 |
| Date fetched |
Epoch osculation |
Inc. [°] |
Ecc. | RA asc node [hr] |
Arg Peri. [°] |
Mean anom [°] |
Mean motion [rev/day] |
Abs. mag |
| Date fetched |
Epoch osculation |
Inc. [°] |
Ecc. | RA asc node [hr] |
Arg Peri. [°] |
Mean anom [°] |
Mean motion [rev/day] |
Abs. mag |
| 2026 May 08 17:57 | 2026 May 05 12:23:59 | 102.5015 | 0.02835 | 14.2586 | 308.8990 | 48.7164 | 13.61231 | – |
| 2026 May 07 17:58 | 2026 May 05 12:23:59 | 102.5015 | 0.02835 | 14.2586 | 308.8990 | 48.7164 | 13.61231 | – |
| 2026 May 06 17:57 | 2026 May 05 12:23:59 | 102.5015 | 0.02835 | 14.2586 | 308.8990 | 48.7164 | 13.61231 | – |
| 2026 May 05 17:57 | 2026 May 05 12:23:59 | 102.5015 | 0.02835 | 14.2586 | 308.8990 | 48.7164 | 13.61231 | – |
| 2026 May 04 17:57 | 2026 Apr 30 12:27:16 | 102.5017 | 0.02833 | 13.8330 | 320.3018 | 48.7164 | 13.61231 | – |
| 2026 May 03 17:57 | 2026 Apr 30 12:27:16 | 102.5017 | 0.02833 | 13.8330 | 320.3018 | 48.7164 | 13.61231 | – |
| 2026 May 02 17:57 | 2026 Apr 30 12:27:16 | 102.5017 | 0.02833 | 13.8330 | 320.3018 | 48.7164 | 13.61231 | – |
| 2026 May 01 17:56 | 2026 Apr 30 12:27:16 | 102.5017 | 0.02833 | 13.8330 | 320.3018 | 48.7164 | 13.61231 | – |
| 2026 Apr 30 17:56 | 2026 Apr 30 12:27:16 | 102.5017 | 0.02833 | 13.8330 | 320.3018 | 48.7164 | 13.61231 | – |
| 2026 Apr 29 17:57 | 2026 Apr 22 12:11:12 | 102.5014 | 0.02831 | 13.1507 | 338.6389 | 48.7164 | 13.61231 | – |
| 2026 Apr 28 17:56 | 2026 Apr 22 12:11:12 | 102.5014 | 0.02831 | 13.1507 | 338.6389 | 48.7164 | 13.61231 | – |
| 2026 Apr 27 17:58 | 2026 Apr 22 12:11:12 | 102.5014 | 0.02831 | 13.1507 | 338.6389 | 48.7164 | 13.61231 | – |
| 2026 Apr 26 17:58 | 2026 Apr 22 12:11:12 | 102.5014 | 0.02831 | 13.1507 | 338.6389 | 48.7164 | 13.61231 | – |
| 2026 Apr 25 17:58 | 2026 Apr 22 12:11:12 | 102.5014 | 0.02831 | 13.1507 | 338.6389 | 48.7164 | 13.61231 | – |
| 2026 Apr 24 17:59 | 2026 Apr 22 12:11:12 | 102.5014 | 0.02831 | 13.1507 | 338.6389 | 48.7164 | 13.61231 | – |
| 2026 Apr 23 17:57 | 2026 Apr 18 23:31:03 | 102.5013 | 0.02831 | 12.8503 | 346.7228 | 48.7164 | 13.61231 | – |
| 2026 Apr 22 17:57 | 2026 Apr 18 23:31:03 | 102.5013 | 0.02831 | 12.8503 | 346.7228 | 48.7164 | 13.61231 | – |
| 2026 Apr 21 17:57 | 2026 Apr 18 23:31:03 | 102.5013 | 0.02831 | 12.8503 | 346.7228 | 48.7164 | 13.61231 | – |
| 2026 Apr 20 17:57 | 2026 Apr 18 23:31:03 | 102.5013 | 0.02831 | 12.8503 | 346.7228 | 48.7164 | 13.61231 | – |
| 2026 Apr 19 17:58 | 2026 Apr 18 23:31:03 | 102.5013 | 0.02831 | 12.8503 | 346.7228 | 48.7164 | 13.61231 | – |
| 2026 Apr 18 17:56 | 2026 Apr 11 11:35:39 | 102.5012 | 0.02833 | 12.2120 | 3.8870 | 48.7164 | 13.61231 | – |
| 2026 Apr 16 17:57 | 2026 Apr 11 11:35:39 | 102.5012 | 0.02833 | 12.2120 | 3.8870 | 48.7164 | 13.61231 | – |
| 2026 Apr 14 17:57 | 2026 Apr 11 11:35:39 | 102.5012 | 0.02833 | 12.2120 | 3.8870 | 48.7164 | 13.61231 | – |
| 2026 Apr 13 17:57 | 2026 Apr 11 11:35:39 | 102.5012 | 0.02833 | 12.2120 | 3.8870 | 48.7164 | 13.61231 | – |
| 2026 Apr 12 17:57 | 2026 Apr 08 11:16:17 | 102.5012 | 0.02835 | 11.9554 | 10.7866 | 48.7164 | 13.61231 | – |
| 2026 Apr 11 17:57 | 2026 Apr 08 11:16:17 | 102.5012 | 0.02835 | 11.9554 | 10.7866 | 48.7164 | 13.61231 | – |